• Join FlightAware (Why Join?)
  • Login
  • US Flag 
08:20AM EDT


 

Airport Tracker/Info


-or-


 

Live Flight TrackerFlight Track Log ✈ DAL6035 ✈ 15-Apr-2013 ✈ KMHT - KLGA

Flight Track Log - Related Links

Times and Time Zones

All times are in EDT time to prevent confusion due to time zone crossing. See the DAL6035 flight status page for this flight to view local times or setup timezone preferences in your user account.

Time Position Orientation Groundspeed Altitude Reporting Facility
EDT Latitude Longitude Course Direction KTS MPH feet Rate Location/Type
01:12PM 42.9500 -71.4167 15° North 166 191 1,000  Level KA90
01:13PM 42.9750 -71.4072 15° North 192 221 1,900 1,740 Climbing Boston Center
01:14PM 43.0228 -71.3836 20° North 252 290 3,700 2,520 Climbing Boston Center
01:15PM 43.0733 -71.4539 315° West 203 234 7,000 2,760 Climbing Boston Center
01:16PM 43.0950 -71.5217 294° West 213 245 9,300 1,980 Climbing Boston Center
01:17PM 43.0978 -71.6325 272° West 248 285 11,100 1,500 Climbing Boston Center
01:18PM 43.0986 -71.7433 271° West 288 331 12,400 1,200 Climbing Boston Center
01:19PM 43.0428 -71.8408 232° Southwest 317 365 13,600 1,320 Climbing Boston Center
01:20PM 42.9744 -71.9406 227° Southwest 352 405 15,000 1,200 Climbing Boston Center
01:21PM 42.9042 -72.0403 226° Southwest 363 418 16,100 1,200 Climbing Boston Center
01:22PM 42.8356 -72.1456 228° Southwest 371 427 17,400 1,140 Climbing Boston Center
01:23PM 42.7650 -72.2478 227° Southwest 371 427 18,400 1,200 Climbing Boston Center
01:24PM 42.7108 -72.3383 231° Southwest 366 421 19,800 1,500 Climbing Boston Center
01:25PM 42.6422 -72.4400 227° Southwest 366 421 21,400 1,080 Climbing Boston Center
01:26PM 42.5650 -72.5358 222° Southwest 366 421 22,000 240 Climbing Boston Center
01:27PM 42.4794 -72.6653 228° Southwest 376 433 22,000  Level Boston Center
01:28PM 42.4083 -72.7664 226° Southwest 376 433 22,000  Level Boston Center
01:29PM 42.3350 -72.8725 227° Southwest 376 433 22,000 -120 Level Boston Center
01:30PM 42.2594 -72.9842 228° Southwest 388 447 21,800 -660 Descending Boston Center
01:31PM 42.1858 -73.0900 227° Southwest 393 452 20,700 -1,140 Descending Boston Center
01:32PM 42.1122 -73.1958 227° Southwest 393 452 19,600 -1,260 Descending Boston Center
01:33PM 42.0386 -73.3011 227° Southwest 365 420 18,300 -840 Descending Boston Center
01:34PM 41.9775 -73.3839 225° Southwest 358 412 18,000 -600 Descending Boston Center
01:35PM 41.8956 -73.4692 218° Southwest 345 397 17,200 -1,140 Descending Boston Center
01:36PM 41.8178 -73.5264 209° Southwest 350 403 15,700 -1,860 Descending Boston Center
01:37PM 41.7214 -73.5833 204° Southwest 350 403 13,500 -2,040 Descending Boston Center
01:39PM 41.5833 -73.6667 204° Southwest 328 377 10,500 -1,620 Descending New York TRACON
01:40PM 41.5167 -73.7000 201° Southwest 277 319 9,400 -780 Descending New York TRACON
01:41PM 41.4500 -73.7333 201° Southwest 270 311 9,000 -240 Descending New York TRACON
01:42PM 41.3667 -73.7833 204° Southwest 269 310 9,000 -240 Level New York TRACON
01:43PM 41.3000 -73.7667 169° South 281 323 8,600 -720 Descending New York TRACON
01:44PM 41.2333 -73.7000 143° Southeast 278 320 7,600 -960 Descending New York TRACON
01:45PM 41.1833 -73.6500 143° Southeast 279 321 6,700 -960 Descending New York TRACON
01:46PM 41.1167 -73.6167 159° South 273 314 5,700 -1,080 Descending New York TRACON
01:47PM 41.0500 -73.6500 201° Southwest 246 283 4,600 -900 Descending New York TRACON
01:48PM 40.9833 -73.6333 169° South 212 244 4,000 -300 Descending New York TRACON
01:49PM 40.9667 -73.6833 246° West 171 197 4,000  Level New York TRACON
01:50PM 40.9500 -73.7500 252° West 171 197 4,000  Level New York TRACON
01:51PM 40.9500 -73.8000 270° West 172 198 4,000  Level New York TRACON
01:52PM 40.9333 -73.8500 246° West 167 192 4,000  Level New York TRACON
01:53PM 40.9167 -73.9167 252° West 170 196 4,000  Level New York TRACON
01:54PM 40.8833 -73.9500 217° Southwest 175 201 4,000  Level New York TRACON
01:55PM 40.8333 -73.9667 194° South 178 205 4,000  Level New York TRACON
01:56PM 40.7833 -74.0000 207° Southwest 178 205 4,000  Level New York TRACON
01:57PM 40.7500 -74.0333 217° Southwest 167 192 4,000  Level New York TRACON